x

Halibut Bank (46146) Wave Buoy

10:00 - Thu 21st Sep 2017 All times are PDT. -7 hours from GMT.

  • Sig Wave height 0.3ft
  • Peak Period 6s
  • Wind
    2mph, 4mph gusts
  • Sea Temp 59°f
  • Luft Temp 58°f
  • Sea Pressure 1015.8mb
  • Halibut Bank
  • Halibut Bank

More Historic Weather Station data

Upgrade to MSW Pro to gain access to the past 30 days of data for over 8000 Wavebouys and Weather Stations around the globe.

Join

Comparision Forecast

View Surf forecast
   
Do 09/21 10:00 0.3ft 6s 2 4 mph 1015.8mb 59f 58f
9:00 0.3ft 7s 4 4 mph 1015.6mb 59f 58f
8:00 0.3ft 3s 7 7 mph 1015.2mb 59f 58f
7:00 0.7ft 3s 4 7 mph 1015.1mb 59f 58f
6:00 0.3ft 6s 4 7 mph 1014.7mb 60f 58f
5:00 0.7ft 7s 2 4 mph 1014.6mb 61f 59f
4:00 0.3ft 4s  -  mph 1014.6mb 60f 59f
3:00 0.3ft 6s  -  2 mph 1014.6mb 60f 58f
2:00 0.3ft 3s 4 7 mph 1014.5mb 60f 57f
1:00 0.3ft 3s 4 7 mph 1014.6mb 59f 57f
12:00 0.3ft 3s 4 4 mph 1014.5mb 59f 56f
11:00 0.3ft 3s 2 4 mph 1014.4mb 59f 56f
10:00 0.7ft 2s  -  2 mph 1014mb 58f 56f
9:00 0.7ft 3s 2 2 mph 1013.7mb 58f 57f
8:00 0.7ft 3s 4 4 mph 1013.4mb 58f 56f
7:00 0.7ft 3s 4 7 mph 1012.8mb 58f 55f
6:00 1ft 3s 7 9 mph 1012.2mb 58f 55f
5:00 1.3ft 3s 9 11 mph 1011.9mb 58f 55f
4:00 1ft 3s 13 13 mph 1011.2mb 58f 55f
3:00 0.7ft 2s 13 16 mph 1010.9mb 59f 56f
2:00 0.3ft 2s 11 13 mph 1010.5mb 59f 56f
1:00 0.3ft 2s 9 11 mph 1009.9mb 59f 57f
12:00 0.7ft 3s 4 7 mph 1009.2mb 59f 57f
Mi 09/20 11:00 0.7ft 3s 7 7 mph 1008.7mb 59f 58f
10:00 1ft 3s 9 11 mph 1008.4mb 58f 57f
9:00 1.3ft 3s 11 13 mph 1007.8mb 58f 58f
8:00 1.3ft 3s 11 11 mph 1007.2mb 59f 58f
7:00 1.3ft 4s 11 13 mph 1006.5mb 59f 58f
6:00 1.3ft 4s 13 13 mph 1006.4mb 59f 57f
5:00 1.6ft 3s 13 16 mph 1006.1mb 59f 57f
4:00 1.6ft 3s 16 18 mph 1006.1mb 59f 57f
3:00 2ft 4s 18 20 mph 1006.2mb 59f 55f
2:00 2ft 4s 18 20 mph 1006mb 59f 54f
1:00 2ft 3s 18 22 mph 1006.2mb 59f 54f
12:00 2.5ft 4s 18 22 mph 1006mb 59f 54f
11:00 1.3ft 3s 18 22 mph 1005.6mb 58f 53f
10:00 1ft 4s 16 18 mph 1005.3mb 58f 53f
9:00 1ft 3s 9 11 mph 1005mb 58f 52f
8:00 1.3ft 3s 9 11 mph 1004.8mb 58f 52f
7:00 1ft 3s 13 18 mph 1004.5mb 58f 52f
6:00 0.3ft 2s 7 11 mph 1004.3mb 58f 52f
5:00 0.7ft 6s 9 11 mph 1004.2mb 58f 53f
4:00 0.3ft 4s 2 4 mph 1004.3mb 58f 53f
3:00 0.3ft 2s 2 4 mph 1004.3mb 58f 53f
2:00 0.3ft 3s 4 4 mph 1004.7mb 58f 52f
1:00 0.3ft 3s 2 4 mph 1005.1mb 58f 54f
12:00 0.3ft 3s 2 4 mph 1005.6mb 59f 54f
Di 09/19 11:00 0.3ft 4s 2 4 mph 1005.7mb 58f 54f
10:00 0.3ft 6s 4 4 mph 1005.8mb 58f 54f
9:00 0.3ft 6s 4 7 mph 1006mb 58f 54f
8:00 0.3ft 3s 4 9 mph 1006.3mb 59f 54f
7:00 0.3ft 6s 9 11 mph 1006.4mb 59f 54f
6:00 0.3ft 3s 9 11 mph 1006.4mb 59f 55f
5:00 0.3ft 6s 4 7 mph 1006.6mb 59f 55f
4:00 0.3ft 3s 4 7 mph 1006.8mb 59f 55f
3:00 0.7ft 3s 4 7 mph 1007.2mb 59f 54f
2:00 0.7ft 3s 7 9 mph 1007.4mb 59f 53f
1:00 0.7ft 3s 2 4 mph 1007.8mb 59f 54f
12:00 0.7ft 3s 2 4 mph 1008.1mb 59f 53f
11:00 0.7ft 2s 4 7 mph 1007.8mb 58f 53f
10:00 0.7ft 3s 7 7 mph 1007.5mb 58f 52f
9:00 0.7ft 3s 4 7 mph 1007.2mb 58f 51f
8:00 1ft 3s 7 9 mph 1006.7mb 58f 52f
7:00 1.3ft 3s 7 9 mph 1006.2mb 58f 52f
6:00 1.3ft 3s 13 18 mph 1005.5mb 58f 52f
5:00 1.6ft 4s 13 16 mph 1005.1mb 58f 52f
4:00 2.5ft 4s 13 18 mph 1004.8mb 58f 52f
3:00 2ft 4s 13 16 mph 1004.7mb 58f 52f
2:00 1.3ft 3s 11 16 mph 1004.7mb 58f 51f
1:00 1.6ft 4s 11 16 mph 1004.6mb 58f 53f
12:00 2.5ft 4s 13 18 mph 1004.6mb 59f 53f
Mo 09/18 11:00 1.3ft 4s 16 18 mph 1004.4mb 58f 55f
10:00 1ft 3s 7 9 mph 1004.7mb 58f 53f
9:00 1.3ft 3s 9 11 mph 1005mb 58f 55f
8:00 1.6ft 3s 7 9 mph 1005mb 58f 55f
7:00 2ft 4s 18 20 mph 1004.7mb 59f 57f
6:00 2ft 3s 16 20 mph 1004.8mb 59f 58f
5:00 2ft 3s 16 18 mph 1005.1mb 59f 57f
4:00 2ft 3s 16 18 mph 1005.6mb 59f 57f
3:00 1.6ft 3s 16 18 mph 1005.8mb 59f 56f
2:00 1.3ft 3s 16 18 mph 1006.4mb 59f 56f
1:00 1ft 3s 13 16 mph 1006.5mb 59f 56f
12:00 0.7ft 3s 11 13 mph 1007mb 59f 56f
11:00 0.7ft 3s 7 9 mph 1007.1mb 59f 55f
10:00 0.7ft 3s 7 9 mph 1006.9mb 59f 55f
9:00 0.7ft 3s 7 9 mph 1006.7mb 59f 55f
8:00 0.7ft 3s 7 7 mph 1006.7mb 59f 55f
7:00 0.7ft 2s 4 7 mph 1006.5mb 59f 55f